Time;durP1;ratioP1;P1;durP2;ratioP2;P2;SDS_P1;SDS_P2;PMS_P1;PMS_P2;Temp;Humidity;BMP_temperature;BMP_pressure;BME280_temperature;BME280_humidity;BME280_pressure;Samples;Min_cycle;Max_cycle;Signal;HPM_P1;HPM_P2
2022/06/10 02:34:33;;;;;;;21.83;10.73;;;;;;;21.37;77.29;98140.19;4855179;29;20192;-95
2022/06/10 02:37:42;;;;;;;27.57;12.43;;;;;;;21.25;77.69;98146.06;4865962;29;20188;-95
2022/06/10 02:40:48;;;;;;;30.13;13.00;;;;;;;21.22;78.40;98157.06;4948150;28;20196;-94
2022/06/10 02:43:23;;;;;;;26.90;12.80;;;;;;;21.22;78.90;98151.72;4960676;28;20192;-95
2022/06/10 02:45:51;;;;;;;28.03;13.87;;;;;;;21.23;78.98;98164.88;4960951;28;20180;-96
2022/06/10 02:48:32;;;;;;;29.57;12.83;;;;;;;21.19;80.01;98174.22;4960935;28;20589;-94
2022/06/10 02:50:58;;;;;;;26.57;11.60;;;;;;;21.13;80.10;98190.88;4961118;28;20184;-95
2022/06/10 02:53:29;;;;;;;27.00;12.83;;;;;;;21.17;80.33;98186.88;4960926;28;20330;-95
2022/06/10 02:55:59;;;;;;;27.10;11.57;;;;;;;21.23;79.98;98191.53;4961020;28;20264;-95
2022/06/10 03:01:55;;;;;;;26.03;12.10;;;;;;;21.20;80.47;98205.19;4978432;28;20180;-95
2022/06/10 03:04:30;;;;;;;25.60;11.80;;;;;;;21.09;81.05;98208.22;4960610;28;20587;-96
2022/06/10 03:07:34;;;;;;;24.80;11.53;;;;;;;21.08;81.68;98208.38;4960990;28;20236;-95
2022/06/10 03:10:08;;;;;;;23.63;11.10;;;;;;;21.14;81.24;98203.22;4977580;28;20172;-95
2022/06/10 03:12:46;;;;;;;24.23;11.40;;;;;;;21.17;80.56;98202.84;4960770;28;20618;-95
2022/06/10 03:15:11;;;;;;;22.13;10.77;;;;;;;21.24;80.39;98203.88;4960147;28;20172;-95
2022/06/10 03:17:46;;;;;;;21.77;10.87;;;;;;;21.28;80.34;98196.34;4960382;28;20187;-95
2022/06/10 03:21:05;;;;;;;23.63;10.43;;;;;;;21.30;80.13;98187.16;4960373;28;20630;-95
2022/06/10 03:23:39;;;;;;;16.90;9.53;;;;;;;21.23;80.35;98204.00;4944265;28;20636;-95
2022/06/10 03:26:18;;;;;;;22.97;11.30;;;;;;;21.20;80.90;98204.38;4960369;28;20184;-95
2022/06/10 03:28:55;;;;;;;21.33;10.47;;;;;;;21.25;80.83;98205.50;4960465;28;20183;-95
2022/06/10 03:31:45;;;;;;;22.77;10.80;;;;;;;21.14;81.17;98205.03;4960325;28;20316;-94
2022/06/10 03:34:55;;;;;;;15.67;9.10;;;;;;;21.10;81.36;98217.88;4960417;28;20267;-95
2022/06/10 03:38:19;;;;;;;18.23;8.80;;;;;;;21.12;81.51;98215.06;4960040;28;20543;-95
2022/06/10 03:41:17;;;;;;;17.97;9.33;;;;;;;21.05;81.63;98220.19;4960046;28;20208;-95
2022/06/10 03:47:51;;;;;;;15.93;8.33;;;;;;;21.14;81.50;98219.22;4865371;29;20230;-95
2022/06/10 03:50:43;;;;;;;13.50;8.17;;;;;;;21.23;81.23;98218.19;4881411;29;20662;-95
2022/06/10 03:54:01;;;;;;;;;;;;;;;;;;;;;
2022/06/10 03:57:20;;;;;;;;;;;;;;;;;;;;;
2022/06/10 04:00:20;;;;;;;14.33;8.67;;;;;;;21.26;81.07;98239.16;4957972;29;20181;-95
2022/06/10 04:03:06;;;;;;;15.10;8.37;;;;;;;21.18;81.27;98236.50;4941348;29;20169;-95
2022/06/10 04:05:55;;;;;;;17.00;7.83;;;;;;;21.13;81.98;98233.53;4956512;29;20540;-95
2022/06/10 04:08:38;;;;;;;;;;;;;;;;;;;;;
2022/06/10 04:21:59;;;;;;;15.47;8.37;;;;;;;21.28;82.06;98229.16;4940737;28;20184;-94
2022/06/10 04:29:02;;;;;;;;;;;;;;;;;;;;;
2022/06/10 14:25:32;;;;;;;2.80;1.63;;;;;;;26.65;67.36;98282.91;5106257;23;20235;-93
2022/06/10 14:28:07;;;;;;;2.40;1.20;;;;;;;26.68;66.23;98282.47;4961397;28;20208;-90
2022/06/10 14:30:37;;;;;;;3.08;1.58;;;;;;;26.73;66.51;98277.31;4961543;28;20190;-92
2022/06/10 14:33:30;;;;;;;;;;;;;;;;;;;;;
2022/06/10 14:36:07;;;;;;;3.33;1.67;;;;;;;26.77;65.95;98289.38;4979311;28;20169;-93
2022/06/10 14:38:35;;;;;;;3.97;1.70;;;;;;;26.73;65.78;98285.38;4959183;28;20184;-93
2022/06/10 14:41:22;;;;;;;5.45;1.75;;;;;;;26.75;65.38;98283.34;4978212;28;20181;-94
2022/06/10 14:44:46;;;;;;;3.75;1.92;;;;;;;26.50;66.73;98290.28;4957287;29;20280;-95
2022/06/10 14:48:09;;;;;;;;;;;;;;;;;;;;;
2022/06/10 14:51:20;;;;;;;4.78;1.92;;;;;;;26.58;67.96;98296.31;4900308;29;20676;-92
2022/06/10 14:55:21;;;;;;;6.80;2.05;;;;;;;26.49;67.30;98307.47;4936408;28;20355;-95
2022/06/10 15:01:10;;;;;;;;;;;;;;;;;;;;;
2022/06/10 18:06:14;;;;;;;8.63;3.23;;;;;;;25.39;69.83;98331.50;4972961;28;20236;-93
2022/06/10 18:08:48;;;;;;;5.63;3.17;;;;;;;24.93;72.53;98346.34;4957484;28;20682;-92
2022/06/10 18:11:43;;;;;;;6.77;3.30;;;;;;;24.62;75.02;98341.22;4957512;28;20614;-93
2022/06/10 18:17:06;;;;;;;5.03;2.80;;;;;;;24.65;77.11;98346.22;4974947;28;20517;-92
2022/06/10 18:19:39;;;;;;;6.07;3.33;;;;;;;24.87;76.09;98353.28;4973188;28;20164;-92
2022/06/10 18:22:05;;;;;;;6.63;3.13;;;;;;;24.98;75.69;98355.47;4956534;28;20176;-91
2022/06/10 18:24:31;;;;;;;7.20;2.87;;;;;;;25.08;75.39;98357.03;4955857;28;20267;-91
2022/06/10 18:27:00;;;;;;;4.37;2.57;;;;;;;25.14;74.85;98354.41;4956496;28;20224;-91
2022/06/10 18:29:35;;;;;;;5.33;3.00;;;;;;;25.15;75.09;98355.25;4974245;28;20699;-91
2022/06/10 18:32:09;;;;;;;5.80;2.90;;;;;;;25.17;75.08;98353.19;4974385;28;20525;-92
2022/06/10 18:34:40;;;;;;;8.50;3.57;;;;;;;25.22;74.83;98345.38;4957382;28;20625;-91
2022/06/10 18:37:06;;;;;;;5.63;3.37;;;;;;;25.18;75.28;98354.84;4957492;28;20183;-92
2022/06/10 18:39:39;;;;;;;6.13;3.10;;;;;;;25.08;75.27;98363.19;4974149;28;20532;-92
2022/06/10 18:42:09;;;;;;;6.77;3.20;;;;;;;25.09;75.11;98372.09;4957507;28;20179;-91
2022/06/10 18:44:40;;;;;;;8.50;3.20;;;;;;;25.04;75.02;98380.72;4974445;28;20183;-91
2022/06/10 18:47:06;;;;;;;5.67;3.43;;;;;;;25.00;75.08;98377.56;4958998;28;20200;-91
2022/06/10 18:49:32;;;;;;;8.43;3.87;;;;;;;;;;4960777;28;20176;-91
2022/06/10 18:52:24;;;;;;;;;;;;;;;;;;;;;
2022/06/10 18:54:56;;;;;;;9.33;4.20;;;;;;;25.04;74.03;98369.97;4978127;28;20163;-92
2022/06/10 18:57:46;;;;;;;;;;;;;;;;;;;;;
2022/06/10 19:00:22;;;;;;;;;;;;;;;;;;;;;
2022/06/10 19:03:01;;;;;;;7.53;3.77;;;;;;;24.94;74.84;98375.66;4977947;28;20533;-91
2022/06/10 19:05:34;;;;;;;7.30;3.63;;;;;;;25.00;74.44;98379.41;4960518;28;20239;-92
2022/06/10 19:08:01;;;;;;;8.30;3.60;;;;;;;24.98;74.44;98379.63;4977941;28;20220;-91
2022/06/10 19:10:47;;;;;;;6.70;3.40;;;;;;;24.99;74.04;98383.97;4977418;28;20184;-92
2022/06/10 19:13:14;;;;;;;8.57;3.17;;;;;;;24.98;74.00;98386.81;4978006;28;20242;-90
2022/06/10 19:15:46;;;;;;;7.03;4.57;;;;;;;24.95;74.20;98385.34;4960316;28;20176;-91
2022/06/10 19:18:34;;;;;;;5.60;3.27;;;;;;;24.88;74.63;98392.50;4960779;28;20587;-91
2022/06/10 19:21:07;;;;;;;7.60;3.77;;;;;;;24.81;75.07;98390.75;4977374;28;20165;-91
2022/06/10 19:23:33;;;;;;;5.53;3.37;;;;;;;24.75;75.28;98392.31;4960143;28;20172;-91
2022/06/10 19:26:05;;;;;;;8.50;3.47;;;;;;;24.69;75.20;98390.38;4976983;28;20176;-91
2022/06/10 19:28:35;;;;;;;4.73;3.03;;;;;;;24.61;75.59;98385.13;4976932;28;20713;-90
2022/06/10 19:31:05;;;;;;;4.73;2.73;;;;;;;24.53;75.79;98387.91;4960067;28;20169;-91
2022/06/10 19:33:42;;;;;;;5.97;3.30;;;;;;;24.51;75.32;98373.88;4959875;28;20255;-90
2022/06/10 19:36:31;;;;;;;4.17;2.13;;;;;;;24.41;75.67;98387.56;4977205;28;20178;-91
2022/06/10 19:38:58;;;;;;;5.23;2.60;;;;;;;24.23;76.74;98376.41;4945917;28;20194;-90
2022/06/10 19:41:34;;;;;;;3.20;1.80;;;;;;;24.12;76.66;98379.53;4977184;28;20188;-91
2022/06/10 19:46:47;;;;;;;5.20;2.40;;;;;;;24.05;76.91;98385.78;4977332;28;20247;-91
2022/06/10 19:49:23;;;;;;;4.87;2.23;;;;;;;23.87;77.38;98379.94;4976871;28;20177;-92
2022/06/10 19:51:49;;;;;;;4.27;2.03;;;;;;;23.92;77.46;98378.38;4959785;28;20532;-92
2022/06/10 19:54:15;;;;;;;3.03;1.60;;;;;;;23.96;77.60;98384.19;4959988;28;20176;-91
2022/06/10 19:56:48;;;;;;;3.67;1.83;;;;;;;23.93;77.56;98392.56;4959804;28;20544;-92
2022/06/10 19:59:16;;;;;;;5.03;1.83;;;;;;;23.99;77.22;98399.88;4959729;28;20247;-92
2022/06/10 20:01:47;;;;;;;4.87;1.90;;;;;;;24.02;76.79;98396.84;4959673;28;20782;-91
2022/06/10 20:04:28;;;;;;;4.43;1.90;;;;;;;23.93;76.95;98405.97;4976554;28;20236;-92
2022/06/10 20:07:10;;;;;;;3.93;2.03;;;;;;;23.94;77.27;98407.63;4959368;28;20201;-91
2022/06/10 20:09:54;;;;;;;6.97;2.10;;;;;;;23.92;77.34;98405.16;4977076;28;20161;-91
2022/06/10 20:12:26;;;;;;;3.77;2.03;;;;;;;23.88;77.06;98394.97;4959431;28;20594;-91
2022/06/10 20:14:54;;;;;;;3.53;1.70;;;;;;;23.88;77.01;98408.34;4976471;28;20161;-92
2022/06/10 20:17:27;;;;;;;5.47;2.30;;;;;;;23.83;77.66;98406.22;4976187;28;20256;-92
2022/06/10 20:19:56;;;;;;;3.10;1.87;;;;;;;23.88;77.57;98397.66;4959457;28;20268;-91
2022/06/10 20:22:46;;;;;;;5.83;2.40;;;;;;;23.89;77.43;98405.53;4976272;28;20180;-92
2022/06/10 20:25:37;;;;;;;;;;;;;;;;;;;;;
2022/06/10 20:28:06;;;;;;;3.87;2.00;;;;;;;23.96;76.95;98406.44;4976357;28;20200;-91
2022/06/10 20:30:48;;;;;;;6.23;2.00;;;;;;;23.93;77.20;98400.59;4959347;28;20181;-92
2022/06/10 20:33:47;;;;;;;7.30;1.43;;;;;;;23.91;77.11;98399.97;4959192;28;20582;-93
2022/06/10 20:36:29;;;;;;;;;;;;;;;;;;;;;
2022/06/10 20:39:41;;;;;;;3.33;1.53;;;;;;;23.85;77.38;98404.19;4976992;28;20157;-92
2022/06/10 20:42:26;;;;;;;3.77;1.90;;;;;;;23.74;77.68;98408.16;4959024;28;20183;-91
2022/06/10 20:45:25;;;;;;;;;;;;;;;;;;;;;
2022/06/10 20:47:56;;;;;;;2.93;1.43;;;;;;;23.68;77.83;98400.88;4968416;28;20244;-93
2022/06/10 20:50:31;;;;;;;4.23;1.60;;;;;;;23.62;77.70;98390.03;4976269;28;20247;-91
2022/06/10 20:53:08;;;;;;;;;;;;;;;;;;;;;
2022/06/10 20:55:37;;;;;;;3.77;1.83;;;;;;;23.63;77.05;98387.19;4976514;28;20152;-92
2022/06/10 20:58:14;;;;;;;3.23;1.67;;;;;;;23.55;77.29;98389.94;4958753;28;20709;-92
2022/06/10 21:00:51;;;;;;;;;;;;;;;;;;;;;
2022/06/10 21:03:37;;;;;;;;;;;;;;;;;;;;;
2022/06/10 21:09:10;;;;;;;3.47;1.47;;;;;;;23.39;77.97;98387.41;4975230;28;20172;-92
2022/06/10 21:11:48;;;;;;;;;;;;;;;;;;;;;
2022/06/10 21:14:47;;;;;;;;;;;;;;;;;;;;;
2022/06/10 21:17:31;;;;;;;5.47;1.37;;;;;;;23.35;78.28;98398.63;4976195;28;20181;-92
2022/06/10 21:20:22;;;;;;;4.83;1.77;;;;;;;23.16;79.29;98391.91;4958909;28;20259;-92
2022/06/10 21:23:07;;;;;;;4.70;1.37;;;;;;;23.22;79.49;98383.13;4975438;28;20165;-92
2022/06/10 21:25:35;;;;;;;3.30;1.37;;;;;;;23.30;78.99;98391.09;4958340;28;20263;-91
2022/06/10 21:28:03;;;;;;;3.77;1.80;;;;;;;23.36;78.46;98394.91;4958307;28;20204;-92
2022/06/10 21:31:00;;;;;;;3.10;1.60;;;;;;;23.39;77.95;98395.44;4975074;28;20179;-93
2022/06/10 21:33:48;;;;;;;4.47;1.83;;;;;;;23.37;77.61;98389.44;4955904;28;20223;-91
2022/06/10 21:36:24;;;;;;;3.67;1.83;;;;;;;23.38;77.64;98396.41;4975322;28;20163;-91
2022/06/10 21:38:53;;;;;;;2.63;1.27;;;;;;;23.42;77.02;98397.75;4975511;28;20168;-92
2022/06/10 21:41:43;;;;;;;;;;;;;;;;;;;;;
2022/06/10 21:44:34;;;;;;;4.23;1.73;;;;;;;23.34;77.51;98399.63;4975726;28;20164;-91
2022/06/10 21:47:26;;;;;;;8.10;2.10;;;;;;;23.30;77.60;98399.13;4975354;28;20339;-92
2022/06/10 21:49:55;;;;;;;3.60;1.50;;;;;;;23.29;77.40;98393.97;4966379;28;20342;-92
2022/06/10 21:52:29;;;;;;;3.53;1.60;;;;;;;23.17;78.07;98386.34;4957992;28;20266;-92
2022/06/10 21:54:58;;;;;;;6.40;1.70;;;;;;;23.09;78.37;98375.72;4975081;28;20156;-92
2022/06/10 21:57:29;;;;;;;3.60;1.80;;;;;;;23.02;78.81;98374.78;4974849;28;20204;-92
2022/06/10 21:59:58;;;;;;;4.17;2.07;;;;;;;22.97;79.15;98370.97;4958035;28;20658;-92
2022/06/10 22:02:28;;;;;;;7.73;2.03;;;;;;;22.96;78.89;98371.97;4974800;28;20184;-92
2022/06/10 22:04:55;;;;;;;3.70;2.07;;;;;;;22.85;79.84;98370.53;4958072;28;20206;-92
2022/06/10 22:07:29;;;;;;;6.23;2.57;;;;;;;22.83;79.75;98372.53;4957836;28;20211;-92
2022/06/10 22:10:03;;;;;;;7.03;3.57;;;;;;;22.79;79.84;98367.75;4957902;28;20196;-92
2022/06/10 22:12:37;;;;;;;8.60;2.43;;;;;;;22.74;80.45;98378.13;4957726;28;20183;-93
2022/06/10 22:15:36;;;;;;;;;;;;;;;;;;;;;
2022/06/10 22:18:20;;;;;;;4.53;2.43;;;;;;;22.73;80.33;98379.13;4974881;28;20172;-92
2022/06/10 22:21:24;;;;;;;;;;;;;;;;;;;;;
2022/06/10 22:23:59;;;;;;;6.90;3.50;;;;;;;22.72;80.33;98372.13;4978504;28;20180;-93
2022/06/10 22:26:24;;;;;;;9.10;4.73;;;;;;;22.69;80.58;98381.34;4961769;28;20206;-92
2022/06/10 22:29:06;;;;;;;8.20;3.87;;;;;;;22.67;81.21;98387.84;4961543;28;20220;-92
2022/06/10 22:31:53;;;;;;;8.70;4.67;;;;;;;22.61;81.18;98384.81;4961519;28;20204;-92
2022/06/10 22:34:26;;;;;;;7.47;5.10;;;;;;;22.58;81.98;98387.88;4978608;28;20231;-92
2022/06/10 22:37:13;;;;;;;8.90;5.33;;;;;;;22.64;82.10;98386.38;4961351;28;20203;-92
2022/06/10 22:39:41;;;;;;;13.07;5.90;;;;;;;22.57;82.65;98396.88;4961224;28;20180;-92
2022/06/10 22:42:18;;;;;;;10.17;4.83;;;;;;;22.61;82.21;98389.34;4961172;28;20203;-93
2022/06/10 22:44:44;;;;;;;11.67;7.10;;;;;;;22.61;82.37;98389.34;4978455;28;20199;-92
2022/06/10 22:47:19;;;;;;;11.93;6.27;;;;;;;22.59;82.23;98396.69;4977940;28;20224;-92
2022/06/10 22:49:48;;;;;;;10.60;6.57;;;;;;;22.56;82.21;98397.88;4961469;28;20255;-92
2022/06/10 22:52:30;;;;;;;12.57;6.97;;;;;;;22.48;82.99;98389.09;4961062;28;20176;-92
2022/06/10 22:55:09;;;;;;;15.97;7.03;;;;;;;22.47;83.04;98393.59;4978791;28;20219;-92
2022/06/10 22:57:39;;;;;;;12.23;6.83;;;;;;;22.46;83.77;98383.91;4977851;28;20169;-92
2022/06/10 23:00:12;;;;;;;12.90;5.87;;;;;;;22.42;84.17;98379.91;4960678;28;20188;-91
2022/06/10 23:03:08;;;;;;;;;;;;;;;;;;;;;
2022/06/10 23:12:03;;;;;;;13.60;7.27;;;;;;;22.40;83.72;98384.59;4977848;28;20183;-92
2022/06/10 23:14:51;;;;;;;13.67;7.67;;;;;;;22.41;83.49;98378.25;4960619;28;20257;-92
2022/06/10 23:17:42;;;;;;;13.13;6.77;;;;;;;22.53;83.01;98379.53;4977824;28;20208;-92
2022/06/10 23:20:49;;;;;;;19.07;7.33;;;;;;;22.48;83.33;98379.19;4960282;28;20210;-92
2022/06/10 23:23:26;;;;;;;17.80;9.63;;;;;;;22.47;82.94;98377.56;4950566;28;20254;-92
2022/06/10 23:26:15;;;;;;;20.30;10.40;;;;;;;22.53;82.81;98376.03;4960728;28;20176;-93
2022/06/10 23:28:50;;;;;;;23.30;12.47;;;;;;;22.57;82.56;98380.84;4960446;28;20228;-92
2022/06/10 23:31:35;;;;;;;23.37;11.50;;;;;;;22.42;83.33;98374.59;4960442;28;20180;-93
2022/06/10 23:34:05;;;;;;;23.07;11.77;;;;;;;22.29;84.56;98374.31;4959084;28;20196;-92
2022/06/10 23:36:43;;;;;;;23.93;12.80;;;;;;;22.33;84.66;98366.75;4977770;28;20169;-91
2022/06/10 23:39:17;;;;;;;26.40;11.97;;;;;;;22.30;84.83;98361.78;4960475;28;20334;-92
2022/06/10 23:42:02;;;;;;;20.27;10.30;;;;;;;22.35;84.29;98370.91;4977700;28;20218;-92
2022/06/10 23:44:47;;;;;;;19.87;11.10;;;;;;;22.33;84.98;98361.41;4960282;28;20180;-93
2022/06/10 23:52:55;;;;;;;22.33;12.13;;;;;;;22.41;84.01;98348.03;4977654;28;20259;-91
2022/06/10 23:58:17;;;;;;;22.33;11.17;;;;;;;22.34;84.32;98342.56;4977015;28;20219;-92
